sensor_id;sensor_type;location;lat;lon;timestamp;temperature;humidity
1405;DHT22;697;51.114;6.542;2024-03-06T00:01:43;9.50;99.90
1405;DHT22;697;51.114;6.542;2024-03-06T00:04:10;9.40;99.90
1405;DHT22;697;51.114;6.542;2024-03-06T00:06:37;9.40;99.90
1405;DHT22;697;51.114;6.542;2024-03-06T00:09:05;9.40;99.90
1405;DHT22;697;51.114;6.542;2024-03-06T00:11:34;9.40;99.90
1405;DHT22;697;51.114;6.542;2024-03-06T00:14:02;9.30;99.90
1405;DHT22;697;51.114;6.542;2024-03-06T00:16:30;9.30;99.90
1405;DHT22;697;51.114;6.542;2024-03-06T00:18:57;9.30;99.90
1405;DHT22;697;51.114;6.542;2024-03-06T00:21:24;9.30;99.90
1405;DHT22;697;51.114;6.542;2024-03-06T00:23:51;9.20;99.90
1405;DHT22;697;51.114;6.542;2024-03-06T00:26:19;9.10;99.90
1405;DHT22;697;51.114;6.542;2024-03-06T00:28:46;9.10;99.90
1405;DHT22;697;51.114;6.542;2024-03-06T00:31:12;9.00;99.90
1405;DHT22;697;51.114;6.542;2024-03-06T00:33:40;8.90;99.90
1405;DHT22;697;51.114;6.542;2024-03-06T00:36:07;8.90;99.90
1405;DHT22;697;51.114;6.542;2024-03-06T00:38:34;8.90;99.90
1405;DHT22;697;51.114;6.542;2024-03-06T00:41:01;8.80;99.90
1405;DHT22;697;51.114;6.542;2024-03-06T00:43:29;8.80;99.90
1405;DHT22;697;51.114;6.542;2024-03-06T00:45:55;8.80;99.90
1405;DHT22;697;51.114;6.542;2024-03-06T00:48:22;8.80;99.90
1405;DHT22;697;51.114;6.542;2024-03-06T00:50:49;8.90;99.90
1405;DHT22;697;51.114;6.542;2024-03-06T00:53:15;8.90;99.90
1405;DHT22;697;51.114;6.542;2024-03-06T00:55:42;8.90;99.90
1405;DHT22;697;51.114;6.542;2024-03-06T00:58:09;8.80;99.90
1405;DHT22;697;51.114;6.542;2024-03-06T01:00:37;8.90;99.90
1405;DHT22;697;51.114;6.542;2024-03-06T01:03:05;8.80;99.90
1405;DHT22;697;51.114;6.542;2024-03-06T01:05:32;8.80;99.90
1405;DHT22;697;51.114;6.542;2024-03-06T01:07:59;8.80;99.90
1405;DHT22;697;51.114;6.542;2024-03-06T01:10:25;8.90;99.90
1405;DHT22;697;51.114;6.542;2024-03-06T01:12:52;8.90;99.90
1405;DHT22;697;51.114;6.542;2024-03-06T01:15:19;8.90;99.90
1405;DHT22;697;51.114;6.542;2024-03-06T01:17:47;8.90;99.90
1405;DHT22;697;51.114;6.542;2024-03-06T01:20:15;9.00;99.90
1405;DHT22;697;51.114;6.542;2024-03-06T01:22:41;9.00;99.90
1405;DHT22;697;51.114;6.542;2024-03-06T01:25:08;9.00;99.90
1405;DHT22;697;51.114;6.542;2024-03-06T01:27:35;9.00;99.90
1405;DHT22;697;51.114;6.542;2024-03-06T01:30:02;9.00;99.90
1405;DHT22;697;51.114;6.542;2024-03-06T01:32:29;9.10;99.90
1405;DHT22;697;51.114;6.542;2024-03-06T01:34:58;9.10;99.90
1405;DHT22;697;51.114;6.542;2024-03-06T01:37:24;9.10;99.90
1405;DHT22;697;51.114;6.542;2024-03-06T01:39:51;9.10;99.90
1405;DHT22;697;51.114;6.542;2024-03-06T01:42:18;9.10;99.90
1405;DHT22;697;51.114;6.542;2024-03-06T01:44:45;9.10;99.90
1405;DHT22;697;51.114;6.542;2024-03-06T01:47:12;9.10;99.90
1405;DHT22;697;51.114;6.542;2024-03-06T01:49:39;9.10;99.90
1405;DHT22;697;51.114;6.542;2024-03-06T01:52:09;9.10;99.90
1405;DHT22;697;51.114;6.542;2024-03-06T01:54:37;9.10;99.90
1405;DHT22;697;51.114;6.542;2024-03-06T01:57:05;9.10;99.90
1405;DHT22;697;51.114;6.542;2024-03-06T01:59:33;9.10;99.90
1405;DHT22;697;51.114;6.542;2024-03-06T02:02:00;9.00;99.90
1405;DHT22;697;51.114;6.542;2024-03-06T02:04:29;9.00;99.90
1405;DHT22;697;51.114;6.542;2024-03-06T02:06:56;9.00;99.90
1405;DHT22;697;51.114;6.542;2024-03-06T02:09:24;8.90;99.90
1405;DHT22;697;51.114;6.542;2024-03-06T02:11:51;8.90;99.90
1405;DHT22;697;51.114;6.542;2024-03-06T02:14:18;8.80;99.90
1405;DHT22;697;51.114;6.542;2024-03-06T02:16:45;8.80;99.90
1405;DHT22;697;51.114;6.542;2024-03-06T02:19:11;8.80;99.90
1405;DHT22;697;51.114;6.542;2024-03-06T02:21:41;8.80;99.90
1405;DHT22;697;51.114;6.542;2024-03-06T02:24:09;8.80;99.90
1405;DHT22;697;51.114;6.542;2024-03-06T02:26:37;8.70;99.90
1405;DHT22;697;51.114;6.542;2024-03-06T02:29:04;8.70;99.90
1405;DHT22;697;51.114;6.542;2024-03-06T02:31:31;8.70;99.90
1405;DHT22;697;51.114;6.542;2024-03-06T02:33:58;8.60;99.90
1405;DHT22;697;51.114;6.542;2024-03-06T02:36:28;8.60;99.90
1405;DHT22;697;51.114;6.542;2024-03-06T02:38:56;8.60;99.90
1405;DHT22;697;51.114;6.542;2024-03-06T02:41:22;8.50;99.90
1405;DHT22;697;51.114;6.542;2024-03-06T02:43:49;8.50;99.90
1405;DHT22;697;51.114;6.542;2024-03-06T02:46:17;8.50;99.90
1405;DHT22;697;51.114;6.542;2024-03-06T02:48:44;8.50;99.90
1405;DHT22;697;51.114;6.542;2024-03-06T02:51:11;8.50;99.90
1405;DHT22;697;51.114;6.542;2024-03-06T02:53:37;8.40;99.90
1405;DHT22;697;51.114;6.542;2024-03-06T02:56:06;8.40;99.90
1405;DHT22;697;51.114;6.542;2024-03-06T02:58:35;8.40;99.90
1405;DHT22;697;51.114;6.542;2024-03-06T03:01:02;8.30;99.90
1405;DHT22;697;51.114;6.542;2024-03-06T03:03:28;8.30;99.90
1405;DHT22;697;51.114;6.542;2024-03-06T03:05:56;8.20;99.90
1405;DHT22;697;51.114;6.542;2024-03-06T03:08:23;8.20;99.90
1405;DHT22;697;51.114;6.542;2024-03-06T03:10:49;8.20;99.90
1405;DHT22;697;51.114;6.542;2024-03-06T03:13:18;8.10;99.90
1405;DHT22;697;51.114;6.542;2024-03-06T03:15:44;8.10;99.90
1405;DHT22;697;51.114;6.542;2024-03-06T03:18:12;8.10;99.90
1405;DHT22;697;51.114;6.542;2024-03-06T03:20:39;8.10;99.90
1405;DHT22;697;51.114;6.542;2024-03-06T03:23:06;8.10;99.90
1405;DHT22;697;51.114;6.542;2024-03-06T03:25:37;8.10;99.90
1405;DHT22;697;51.114;6.542;2024-03-06T03:28:04;8.00;99.90
1405;DHT22;697;51.114;6.542;2024-03-06T03:30:32;8.00;99.90
1405;DHT22;697;51.114;6.542;2024-03-06T03:32:59;8.00;99.90
1405;DHT22;697;51.114;6.542;2024-03-06T03:35:26;8.00;99.90
1405;DHT22;697;51.114;6.542;2024-03-06T03:37:53;8.00;99.90
1405;DHT22;697;51.114;6.542;2024-03-06T03:40:21;8.00;99.90
1405;DHT22;697;51.114;6.542;2024-03-06T03:42:48;7.90;99.90
1405;DHT22;697;51.114;6.542;2024-03-06T03:45:15;7.90;99.90
1405;DHT22;697;51.114;6.542;2024-03-06T03:47:43;7.90;99.90
1405;DHT22;697;51.114;6.542;2024-03-06T03:50:10;7.90;99.90
1405;DHT22;697;51.114;6.542;2024-03-06T03:52:38;7.80;99.90
1405;DHT22;697;51.114;6.542;2024-03-06T03:55:07;7.80;99.90
1405;DHT22;697;51.114;6.542;2024-03-06T03:57:34;7.80;99.90
1405;DHT22;697;51.114;6.542;2024-03-06T04:00:01;7.80;99.90
1405;DHT22;697;51.114;6.542;2024-03-06T04:02:28;7.80;99.90
1405;DHT22;697;51.114;6.542;2024-03-06T04:04:56;7.80;99.90
1405;DHT22;697;51.114;6.542;2024-03-06T04:07:23;7.70;99.90
1405;DHT22;697;51.114;6.542;2024-03-06T04:09:50;7.70;99.90
1405;DHT22;697;51.114;6.542;2024-03-06T04:12:16;7.70;99.90
1405;DHT22;697;51.114;6.542;2024-03-06T04:14:44;7.70;99.90
1405;DHT22;697;51.114;6.542;2024-03-06T04:17:12;7.70;99.90
1405;DHT22;697;51.114;6.542;2024-03-06T04:19:39;7.80;99.90
1405;DHT22;697;51.114;6.542;2024-03-06T04:22:07;7.80;99.90
1405;DHT22;697;51.114;6.542;2024-03-06T04:24:34;7.80;99.90
1405;DHT22;697;51.114;6.542;2024-03-06T04:27:01;7.70;99.90
1405;DHT22;697;51.114;6.542;2024-03-06T04:29:28;7.70;99.90
1405;DHT22;697;51.114;6.542;2024-03-06T04:31:54;7.80;99.90
1405;DHT22;697;51.114;6.542;2024-03-06T04:34:21;7.80;99.90
1405;DHT22;697;51.114;6.542;2024-03-06T04:36:49;7.80;99.90
1405;DHT22;697;51.114;6.542;2024-03-06T04:39:17;7.80;99.90
1405;DHT22;697;51.114;6.542;2024-03-06T04:41:44;7.80;99.90
1405;DHT22;697;51.114;6.542;2024-03-06T04:44:10;7.80;99.90
1405;DHT22;697;51.114;6.542;2024-03-06T04:46:37;7.80;99.90
1405;DHT22;697;51.114;6.542;2024-03-06T04:49:04;7.80;99.90
1405;DHT22;697;51.114;6.542;2024-03-06T04:51:31;7.80;99.90
1405;DHT22;697;51.114;6.542;2024-03-06T04:53:58;7.70;99.90
1405;DHT22;697;51.114;6.542;2024-03-06T04:56:26;7.70;99.90
1405;DHT22;697;51.114;6.542;2024-03-06T04:58:53;7.70;99.90
1405;DHT22;697;51.114;6.542;2024-03-06T05:01:20;7.70;99.90
1405;DHT22;697;51.114;6.542;2024-03-06T05:03:47;7.70;99.90
1405;DHT22;697;51.114;6.542;2024-03-06T05:06:15;7.70;99.90
1405;DHT22;697;51.114;6.542;2024-03-06T05:08:41;7.70;99.90
1405;DHT22;697;51.114;6.542;2024-03-06T05:11:08;7.80;99.90
1405;DHT22;697;51.114;6.542;2024-03-06T05:13:36;7.80;99.90
1405;DHT22;697;51.114;6.542;2024-03-06T05:16:04;7.80;99.90
1405;DHT22;697;51.114;6.542;2024-03-06T05:18:31;7.80;99.90
1405;DHT22;697;51.114;6.542;2024-03-06T05:20:59;7.80;99.90
1405;DHT22;697;51.114;6.542;2024-03-06T05:23:26;7.90;99.90
1405;DHT22;697;51.114;6.542;2024-03-06T05:25:53;7.90;99.90
1405;DHT22;697;51.114;6.542;2024-03-06T05:28:20;7.90;99.90
1405;DHT22;697;51.114;6.542;2024-03-06T05:30:48;7.90;99.90
1405;DHT22;697;51.114;6.542;2024-03-06T05:33:15;7.90;99.90
1405;DHT22;697;51.114;6.542;2024-03-06T05:35:42;7.90;99.90
1405;DHT22;697;51.114;6.542;2024-03-06T05:38:08;7.80;99.90
1405;DHT22;697;51.114;6.542;2024-03-06T05:40:35;7.80;99.90
1405;DHT22;697;51.114;6.542;2024-03-06T05:43:05;7.80;99.90
1405;DHT22;697;51.114;6.542;2024-03-06T05:45:31;7.80;99.90
1405;DHT22;697;51.114;6.542;2024-03-06T05:47:59;7.80;99.90
1405;DHT22;697;51.114;6.542;2024-03-06T05:50:26;7.80;99.90
1405;DHT22;697;51.114;6.542;2024-03-06T05:52:53;7.80;99.90
1405;DHT22;697;51.114;6.542;2024-03-06T05:55:20;7.80;99.90
1405;DHT22;697;51.114;6.542;2024-03-06T05:57:47;7.90;99.90
1405;DHT22;697;51.114;6.542;2024-03-06T06:00:15;7.80;99.90
1405;DHT22;697;51.114;6.542;2024-03-06T06:02:43;7.90;99.90
1405;DHT22;697;51.114;6.542;2024-03-06T06:05:13;7.90;99.90
1405;DHT22;697;51.114;6.542;2024-03-06T06:07:40;7.90;99.90
1405;DHT22;697;51.114;6.542;2024-03-06T06:10:07;7.90;99.90
1405;DHT22;697;51.114;6.542;2024-03-06T06:12:35;7.90;99.90
1405;DHT22;697;51.114;6.542;2024-03-06T06:15:02;7.90;99.90
1405;DHT22;697;51.114;6.542;2024-03-06T06:17:29;7.90;99.90
1405;DHT22;697;51.114;6.542;2024-03-06T06:19:56;7.90;99.90
1405;DHT22;697;51.114;6.542;2024-03-06T06:22:26;8.00;99.90
1405;DHT22;697;51.114;6.542;2024-03-06T06:24:53;8.00;99.90
1405;DHT22;697;51.114;6.542;2024-03-06T06:27:21;7.90;99.90
1405;DHT22;697;51.114;6.542;2024-03-06T06:29:48;7.90;99.90
1405;DHT22;697;51.114;6.542;2024-03-06T06:32:14;7.90;99.90
1405;DHT22;697;51.114;6.542;2024-03-06T06:34:41;7.90;99.90
1405;DHT22;697;51.114;6.542;2024-03-06T06:37:08;7.90;99.90
1405;DHT22;697;51.114;6.542;2024-03-06T06:39:36;7.90;99.90
1405;DHT22;697;51.114;6.542;2024-03-06T06:42:03;8.00;99.90
1405;DHT22;697;51.114;6.542;2024-03-06T06:44:30;8.00;99.90
1405;DHT22;697;51.114;6.542;2024-03-06T06:46:56;8.00;99.90
1405;DHT22;697;51.114;6.542;2024-03-06T06:49:24;8.00;99.90
1405;DHT22;697;51.114;6.542;2024-03-06T06:51:50;8.10;99.90
1405;DHT22;697;51.114;6.542;2024-03-06T06:54:17;8.10;99.90
1405;DHT22;697;51.114;6.542;2024-03-06T06:56:45;8.10;99.90
1405;DHT22;697;51.114;6.542;2024-03-06T06:59:12;8.20;99.90
1405;DHT22;697;51.114;6.542;2024-03-06T07:01:39;8.20;99.90
1405;DHT22;697;51.114;6.542;2024-03-06T07:04:07;8.30;99.90
1405;DHT22;697;51.114;6.542;2024-03-06T07:06:34;8.40;99.90
1405;DHT22;697;51.114;6.542;2024-03-06T07:09:00;8.50;99.90
1405;DHT22;697;51.114;6.542;2024-03-06T07:11:27;8.50;99.90
1405;DHT22;697;51.114;6.542;2024-03-06T07:13:55;8.60;99.90
1405;DHT22;697;51.114;6.542;2024-03-06T07:16:22;8.60;99.90
1405;DHT22;697;51.114;6.542;2024-03-06T07:18:49;8.60;99.90
1405;DHT22;697;51.114;6.542;2024-03-06T07:21:16;8.60;99.90
1405;DHT22;697;51.114;6.542;2024-03-06T07:23:43;8.70;99.90
1405;DHT22;697;51.114;6.542;2024-03-06T07:26:10;8.70;99.90
1405;DHT22;697;51.114;6.542;2024-03-06T07:28:37;8.70;99.90
1405;DHT22;697;51.114;6.542;2024-03-06T07:31:05;8.80;99.90
1405;DHT22;697;51.114;6.542;2024-03-06T07:33:32;8.80;99.90
1405;DHT22;697;51.114;6.542;2024-03-06T07:36:03;8.90;99.90
1405;DHT22;697;51.114;6.542;2024-03-06T07:38:30;9.00;99.90
1405;DHT22;697;51.114;6.542;2024-03-06T07:40:57;9.10;99.90
1405;DHT22;697;51.114;6.542;2024-03-06T07:43:24;9.20;99.90
1405;DHT22;697;51.114;6.542;2024-03-06T07:45:52;9.30;99.90
1405;DHT22;697;51.114;6.542;2024-03-06T07:48:20;9.40;99.90
1405;DHT22;697;51.114;6.542;2024-03-06T07:50:47;9.40;99.90
1405;DHT22;697;51.114;6.542;2024-03-06T07:53:14;9.50;99.90
1405;DHT22;697;51.114;6.542;2024-03-06T07:55:41;9.60;99.90
1405;DHT22;697;51.114;6.542;2024-03-06T07:58:08;9.60;99.90
1405;DHT22;697;51.114;6.542;2024-03-06T08:00:35;9.70;99.90
1405;DHT22;697;51.114;6.542;2024-03-06T08:03:02;9.80;99.90
1405;DHT22;697;51.114;6.542;2024-03-06T08:05:30;9.80;99.90
1405;DHT22;697;51.114;6.542;2024-03-06T08:07:59;9.90;99.90
1405;DHT22;697;51.114;6.542;2024-03-06T08:10:25;9.90;99.90
1405;DHT22;697;51.114;6.542;2024-03-06T08:12:52;9.90;99.90
1405;DHT22;697;51.114;6.542;2024-03-06T08:15:19;10.00;99.90
1405;DHT22;697;51.114;6.542;2024-03-06T08:17:46;10.00;99.90
1405;DHT22;697;51.114;6.542;2024-03-06T08:20:12;10.10;99.90
1405;DHT22;697;51.114;6.542;2024-03-06T08:22:41;10.20;99.90
1405;DHT22;697;51.114;6.542;2024-03-06T08:25:10;10.20;99.90
1405;DHT22;697;51.114;6.542;2024-03-06T08:27:38;10.30;99.90
1405;DHT22;697;51.114;6.542;2024-03-06T08:30:06;10.40;99.90
1405;DHT22;697;51.114;6.542;2024-03-06T08:32:34;10.40;99.90
1405;DHT22;697;51.114;6.542;2024-03-06T08:35:03;10.40;99.90
1405;DHT22;697;51.114;6.542;2024-03-06T08:37:31;10.40;99.90
1405;DHT22;697;51.114;6.542;2024-03-06T08:39:59;10.40;99.90
1405;DHT22;697;51.114;6.542;2024-03-06T08:42:26;10.40;99.90
1405;DHT22;697;51.114;6.542;2024-03-06T08:44:53;10.50;99.90
1405;DHT22;697;51.114;6.542;2024-03-06T08:47:20;10.60;99.90
1405;DHT22;697;51.114;6.542;2024-03-06T08:49:47;10.60;99.90
1405;DHT22;697;51.114;6.542;2024-03-06T08:52:13;10.80;99.90
1405;DHT22;697;51.114;6.542;2024-03-06T08:54:40;10.80;99.90
1405;DHT22;697;51.114;6.542;2024-03-06T08:57:10;11.00;99.90
1405;DHT22;697;51.114;6.542;2024-03-06T08:59:36;11.10;99.90
1405;DHT22;697;51.114;6.542;2024-03-06T09:02:13;11.20;99.90
1405;DHT22;697;51.114;6.542;2024-03-06T09:04:40;11.40;99.90
1405;DHT22;697;51.114;6.542;2024-03-06T09:07:07;11.60;99.90
1405;DHT22;697;51.114;6.542;2024-03-06T09:09:34;11.80;99.90
1405;DHT22;697;51.114;6.542;2024-03-06T09:12:02;11.90;99.90
1405;DHT22;697;51.114;6.542;2024-03-06T09:14:32;12.10;99.90
1405;DHT22;697;51.114;6.542;2024-03-06T09:16:58;12.20;99.90
1405;DHT22;697;51.114;6.542;2024-03-06T09:19:25;12.30;99.90
1405;DHT22;697;51.114;6.542;2024-03-06T09:21:52;12.30;99.90
1405;DHT22;697;51.114;6.542;2024-03-06T09:24:20;12.30;99.80
1405;DHT22;697;51.114;6.542;2024-03-06T09:26:48;12.40;99.70
1405;DHT22;697;51.114;6.542;2024-03-06T09:29:15;12.40;99.50
1405;DHT22;697;51.114;6.542;2024-03-06T09:31:43;12.40;99.30
1405;DHT22;697;51.114;6.542;2024-03-06T09:34:11;12.40;98.90
1405;DHT22;697;51.114;6.542;2024-03-06T09:36:38;12.30;98.80
1405;DHT22;697;51.114;6.542;2024-03-06T09:39:05;12.30;98.80
1405;DHT22;697;51.114;6.542;2024-03-06T09:41:33;12.30;98.70
1405;DHT22;697;51.114;6.542;2024-03-06T09:44:00;12.40;98.70
1405;DHT22;697;51.114;6.542;2024-03-06T09:46:27;12.40;98.60
1405;DHT22;697;51.114;6.542;2024-03-06T09:48:56;12.50;98.50
1405;DHT22;697;51.114;6.542;2024-03-06T09:51:23;12.50;98.30
1405;DHT22;697;51.114;6.542;2024-03-06T09:53:50;12.60;98.50
1405;DHT22;697;51.114;6.542;2024-03-06T09:56:18;12.70;98.70
1405;DHT22;697;51.114;6.542;2024-03-06T09:58:46;12.80;98.90
1405;DHT22;697;51.114;6.542;2024-03-06T10:01:14;12.90;99.00
1405;DHT22;697;51.114;6.542;2024-03-06T10:03:42;13.00;98.80
1405;DHT22;697;51.114;6.542;2024-03-06T10:06:10;13.10;98.50
1405;DHT22;697;51.114;6.542;2024-03-06T10:08:41;13.30;98.20
1405;DHT22;697;51.114;6.542;2024-03-06T10:11:08;13.40;97.80
1405;DHT22;697;51.114;6.542;2024-03-06T10:13:35;13.60;97.70
1405;DHT22;697;51.114;6.542;2024-03-06T10:16:04;13.80;97.40
1405;DHT22;697;51.114;6.542;2024-03-06T10:18:34;14.10;97.40
1405;DHT22;697;51.114;6.542;2024-03-06T10:21:01;14.40;97.00
1405;DHT22;697;51.114;6.542;2024-03-06T10:23:29;14.70;96.50
1405;DHT22;697;51.114;6.542;2024-03-06T10:25:55;15.20;95.80
1405;DHT22;697;51.114;6.542;2024-03-06T10:28:23;15.60;94.70
1405;DHT22;697;51.114;6.542;2024-03-06T10:30:51;16.10;93.10
1405;DHT22;697;51.114;6.542;2024-03-06T10:33:19;16.60;92.30
1405;DHT22;697;51.114;6.542;2024-03-06T10:35:46;17.10;90.80
1405;DHT22;697;51.114;6.542;2024-03-06T10:38:14;17.50;89.60
1405;DHT22;697;51.114;6.542;2024-03-06T10:40:44;18.00;87.20
1405;DHT22;697;51.114;6.542;2024-03-06T10:43:11;18.40;84.40
1405;DHT22;697;51.114;6.542;2024-03-06T10:45:47;18.90;80.40
1405;DHT22;697;51.114;6.542;2024-03-06T10:48:14;19.40;77.80
1405;DHT22;697;51.114;6.542;2024-03-06T10:50:42;19.80;74.20
1405;DHT22;697;51.114;6.542;2024-03-06T10:53:10;20.30;69.70
1405;DHT22;697;51.114;6.542;2024-03-06T10:55:38;20.80;66.10
1405;DHT22;697;51.114;6.542;2024-03-06T10:58:07;21.10;60.10
1405;DHT22;697;51.114;6.542;2024-03-06T11:00:36;21.50;59.30
1405;DHT22;697;51.114;6.542;2024-03-06T11:03:05;22.10;59.20
1405;DHT22;697;51.114;6.542;2024-03-06T11:05:34;22.60;57.00
1405;DHT22;697;51.114;6.542;2024-03-06T11:08:01;23.10;55.90
1405;DHT22;697;51.114;6.542;2024-03-06T11:10:32;23.50;53.50
1405;DHT22;697;51.114;6.542;2024-03-06T11:13:00;23.90;51.10
1405;DHT22;697;51.114;6.542;2024-03-06T11:15:29;24.00;49.80
1405;DHT22;697;51.114;6.542;2024-03-06T11:17:56;23.60;49.70
1405;DHT22;697;51.114;6.542;2024-03-06T11:20:23;23.10;50.50
1405;DHT22;697;51.114;6.542;2024-03-06T11:23:04;22.60;51.10
1405;DHT22;697;51.114;6.542;2024-03-06T11:28:37;21.50;52.10
1405;DHT22;697;51.114;6.542;2024-03-06T11:31:08;21.00;52.80
1405;DHT22;697;51.114;6.542;2024-03-06T11:33:38;20.70;54.00
1405;DHT22;697;51.114;6.542;2024-03-06T11:36:16;20.70;54.70
1405;DHT22;697;51.114;6.542;2024-03-06T11:38:47;20.90;55.20
1405;DHT22;697;51.114;6.542;2024-03-06T11:41:14;21.10;53.80
1405;DHT22;697;51.114;6.542;2024-03-06T11:43:44;20.90;53.20
1405;DHT22;697;51.114;6.542;2024-03-06T11:46:14;20.70;53.80
1405;DHT22;697;51.114;6.542;2024-03-06T11:48:43;20.30;54.60
1405;DHT22;697;51.114;6.542;2024-03-06T11:51:10;20.00;55.60
1405;DHT22;697;51.114;6.542;2024-03-06T11:53:37;19.70;57.20
1405;DHT22;697;51.114;6.542;2024-03-06T11:56:07;19.40;57.60
1405;DHT22;697;51.114;6.542;2024-03-06T11:58:34;19.30;58.50
1405;DHT22;697;51.114;6.542;2024-03-06T12:01:01;19.10;58.80
1405;DHT22;697;51.114;6.542;2024-03-06T12:03:29;19.00;59.10
1405;DHT22;697;51.114;6.542;2024-03-06T12:05:57;18.90;59.50
1405;DHT22;697;51.114;6.542;2024-03-06T12:08:24;18.70;59.90
1405;DHT22;697;51.114;6.542;2024-03-06T12:10:51;18.50;60.50
1405;DHT22;697;51.114;6.542;2024-03-06T12:13:20;18.40;61.40
1405;DHT22;697;51.114;6.542;2024-03-06T12:15:48;18.30;61.50
1405;DHT22;697;51.114;6.542;2024-03-06T12:18:17;18.20;62.10
1405;DHT22;697;51.114;6.542;2024-03-06T12:20:45;18.10;62.50
1405;DHT22;697;51.114;6.542;2024-03-06T12:23:19;18.00;63.00
1405;DHT22;697;51.114;6.542;2024-03-06T12:25:48;18.00;63.30
1405;DHT22;697;51.114;6.542;2024-03-06T12:28:15;17.90;63.40
1405;DHT22;697;51.114;6.542;2024-03-06T12:30:43;17.90;63.20
1405;DHT22;697;51.114;6.542;2024-03-06T12:33:10;17.90;62.80
1405;DHT22;697;51.114;6.542;2024-03-06T12:35:40;17.80;63.20
1405;DHT22;697;51.114;6.542;2024-03-06T12:38:17;17.80;64.00
1405;DHT22;697;51.114;6.542;2024-03-06T12:40:44;17.70;63.90
1405;DHT22;697;51.114;6.542;2024-03-06T12:43:11;17.70;64.10
1405;DHT22;697;51.114;6.542;2024-03-06T12:45:37;17.70;63.80
1405;DHT22;697;51.114;6.542;2024-03-06T12:48:05;17.80;63.60
1405;DHT22;697;51.114;6.542;2024-03-06T12:50:32;17.80;63.30
1405;DHT22;697;51.114;6.542;2024-03-06T12:52:59;17.90;62.70
1405;DHT22;697;51.114;6.542;2024-03-06T12:55:27;17.80;60.80
1405;DHT22;697;51.114;6.542;2024-03-06T12:57:54;17.80;60.70
1405;DHT22;697;51.114;6.542;2024-03-06T13:00:20;17.70;60.90
1405;DHT22;697;51.114;6.542;2024-03-06T13:02:49;17.70;61.40
1405;DHT22;697;51.114;6.542;2024-03-06T13:05:16;17.80;62.40
1405;DHT22;697;51.114;6.542;2024-03-06T13:07:43;17.90;63.00
1405;DHT22;697;51.114;6.542;2024-03-06T13:10:11;18.00;62.60
1405;DHT22;697;51.114;6.542;2024-03-06T13:12:39;18.10;62.70
1405;DHT22;697;51.114;6.542;2024-03-06T13:15:06;18.20;62.70
1405;DHT22;697;51.114;6.542;2024-03-06T13:17:33;18.20;62.50
1405;DHT22;697;51.114;6.542;2024-03-06T13:20:00;18.30;62.10
1405;DHT22;697;51.114;6.542;2024-03-06T13:22:27;18.30;61.50
1405;DHT22;697;51.114;6.542;2024-03-06T13:24:54;18.60;61.00
1405;DHT22;697;51.114;6.542;2024-03-06T13:27:22;19.00;60.20
1405;DHT22;697;51.114;6.542;2024-03-06T13:29:50;19.30;58.90
1405;DHT22;697;51.114;6.542;2024-03-06T13:32:17;19.70;58.30
1405;DHT22;697;51.114;6.542;2024-03-06T13:34:44;20.10;56.80
1405;DHT22;697;51.114;6.542;2024-03-06T13:37:11;20.80;54.90
1405;DHT22;697;51.114;6.542;2024-03-06T13:39:38;21.50;53.70
1405;DHT22;697;51.114;6.542;2024-03-06T13:42:06;22.20;52.70
1405;DHT22;697;51.114;6.542;2024-03-06T13:44:33;22.80;51.60
1405;DHT22;697;51.114;6.542;2024-03-06T13:47:01;23.30;49.90
1405;DHT22;697;51.114;6.542;2024-03-06T13:49:36;23.90;48.70
1405;DHT22;697;51.114;6.542;2024-03-06T13:52:03;24.30;47.10
1405;DHT22;697;51.114;6.542;2024-03-06T13:54:31;24.50;45.90
1405;DHT22;697;51.114;6.542;2024-03-06T13:56:57;24.60;44.50
1405;DHT22;697;51.114;6.542;2024-03-06T13:59:28;24.60;45.00
1405;DHT22;697;51.114;6.542;2024-03-06T14:01:54;24.60;44.80
1405;DHT22;697;51.114;6.542;2024-03-06T14:04:23;24.40;45.10
1405;DHT22;697;51.114;6.542;2024-03-06T14:06:50;24.30;44.50
1405;DHT22;697;51.114;6.542;2024-03-06T14:09:17;24.00;44.30
1405;DHT22;697;51.114;6.542;2024-03-06T14:11:44;23.80;45.00
1405;DHT22;697;51.114;6.542;2024-03-06T14:14:11;23.70;45.00
1405;DHT22;697;51.114;6.542;2024-03-06T14:16:39;23.70;44.50
1405;DHT22;697;51.114;6.542;2024-03-06T14:19:06;23.70;44.40
1405;DHT22;697;51.114;6.542;2024-03-06T14:21:35;23.90;44.30
1405;DHT22;697;51.114;6.542;2024-03-06T14:24:02;24.00;43.90
1405;DHT22;697;51.114;6.542;2024-03-06T14:26:30;24.40;43.10
1405;DHT22;697;51.114;6.542;2024-03-06T14:28:56;24.90;42.40
1405;DHT22;697;51.114;6.542;2024-03-06T14:31:23;25.40;40.90
1405;DHT22;697;51.114;6.542;2024-03-06T14:33:50;25.70;40.00
1405;DHT22;697;51.114;6.542;2024-03-06T14:36:17;26.20;39.70
1405;DHT22;697;51.114;6.542;2024-03-06T14:38:45;26.50;38.70
1405;DHT22;697;51.114;6.542;2024-03-06T14:41:12;26.80;37.90
1405;DHT22;697;51.114;6.542;2024-03-06T14:43:39;27.10;37.30
1405;DHT22;697;51.114;6.542;2024-03-06T14:46:06;27.40;36.40
1405;DHT22;697;51.114;6.542;2024-03-06T14:48:34;27.70;35.40
1405;DHT22;697;51.114;6.542;2024-03-06T14:51:01;27.80;33.60
1405;DHT22;697;51.114;6.542;2024-03-06T14:53:28;27.90;34.00
1405;DHT22;697;51.114;6.542;2024-03-06T14:55:56;27.80;33.20
1405;DHT22;697;51.114;6.542;2024-03-06T14:58:23;27.70;32.50
1405;DHT22;697;51.114;6.542;2024-03-06T15:00:50;27.40;32.50
1405;DHT22;697;51.114;6.542;2024-03-06T15:03:17;26.60;32.30
1405;DHT22;697;51.114;6.542;2024-03-06T15:05:45;25.90;34.10
1405;DHT22;697;51.114;6.542;2024-03-06T15:08:12;25.60;36.10
1405;DHT22;697;51.114;6.542;2024-03-06T15:10:39;25.50;36.20
1405;DHT22;697;51.114;6.542;2024-03-06T15:13:07;25.50;36.40
1405;DHT22;697;51.114;6.542;2024-03-06T15:15:35;25.60;35.20
1405;DHT22;697;51.114;6.542;2024-03-06T15:18:03;25.70;35.20
1405;DHT22;697;51.114;6.542;2024-03-06T15:20:30;25.70;34.80
1405;DHT22;697;51.114;6.542;2024-03-06T15:22:58;25.70;34.50
1405;DHT22;697;51.114;6.542;2024-03-06T15:25:25;25.50;34.70
1405;DHT22;697;51.114;6.542;2024-03-06T15:27:52;25.40;35.10
1405;DHT22;697;51.114;6.542;2024-03-06T15:30:20;25.30;35.00
1405;DHT22;697;51.114;6.542;2024-03-06T15:32:47;25.30;35.00
1405;DHT22;697;51.114;6.542;2024-03-06T15:35:14;25.20;34.70
1405;DHT22;697;51.114;6.542;2024-03-06T15:37:41;25.20;34.80
1405;DHT22;697;51.114;6.542;2024-03-06T15:40:09;25.10;35.60
1405;DHT22;697;51.114;6.542;2024-03-06T15:42:36;25.00;35.80
1405;DHT22;697;51.114;6.542;2024-03-06T15:45:04;24.90;35.70
1405;DHT22;697;51.114;6.542;2024-03-06T15:47:32;24.70;35.10
1405;DHT22;697;51.114;6.542;2024-03-06T15:49:59;24.60;35.40
1405;DHT22;697;51.114;6.542;2024-03-06T15:52:26;24.40;35.20
1405;DHT22;697;51.114;6.542;2024-03-06T15:54:53;24.30;35.70
1405;DHT22;697;51.114;6.542;2024-03-06T15:57:20;24.10;35.80
1405;DHT22;697;51.114;6.542;2024-03-06T15:59:47;23.90;36.10
1405;DHT22;697;51.114;6.542;2024-03-06T16:02:14;23.60;35.90
1405;DHT22;697;51.114;6.542;2024-03-06T16:04:42;23.40;36.70
1405;DHT22;697;51.114;6.542;2024-03-06T16:07:09;23.20;36.90
1405;DHT22;697;51.114;6.542;2024-03-06T16:09:37;23.00;37.90
1405;DHT22;697;51.114;6.542;2024-03-06T16:12:04;22.80;38.50
1405;DHT22;697;51.114;6.542;2024-03-06T16:14:31;22.60;39.40
1405;DHT22;697;51.114;6.542;2024-03-06T16:16:58;22.40;39.50
1405;DHT22;697;51.114;6.542;2024-03-06T16:19:32;22.30;39.60
1405;DHT22;697;51.114;6.542;2024-03-06T16:22:00;22.10;40.10
1405;DHT22;697;51.114;6.542;2024-03-06T16:24:28;21.90;41.10
1405;DHT22;697;51.114;6.542;2024-03-06T16:26:55;21.60;41.00
1405;DHT22;697;51.114;6.542;2024-03-06T16:29:22;21.40;41.30
1405;DHT22;697;51.114;6.542;2024-03-06T16:31:49;21.00;42.10